Time;durP1;ratioP1;P1;durP2;ratioP2;P2;SDS_P1;SDS_P2;PMS_P1;PMS_P2;Temp;Humidity;BMP_temperature;BMP_pressure;BME280_temperature;BME280_humidity;BME280_pressure;Samples;Min_cycle;Max_cycle;Signal;HPM_P1;HPM_P2
2021/12/12 00:01:24;;;;;;;65.03;26.53;;;1.90;99.90;;;;;;4994597;28;20231;-83
2021/12/12 00:03:54;;;;;;;68.23;27.00;;;2.00;99.90;;;;;;4998299;28;20171;-82
2021/12/12 00:06:25;;;;;;;72.50;27.47;;;2.00;99.90;;;;;;4975786;28;20206;-81
2021/12/12 00:08:59;;;;;;;67.27;26.93;;;2.10;99.90;;;;;;4987698;28;20172;-81
2021/12/12 00:11:27;;;;;;;63.20;25.63;;;2.10;99.90;;;;;;5006140;28;20175;-82
2021/12/12 00:14:25;;;;;;;71.13;27.70;;;2.20;99.90;;;;;;4972276;28;20200;-82
2021/12/12 00:16:53;;;;;;;68.43;27.40;;;2.10;99.90;;;;;;4986593;28;20200;-83
2021/12/12 00:19:19;;;;;;;61.97;25.80;;;2.20;99.90;;;;;;4976108;28;20206;-82
2021/12/12 00:21:51;;;;;;;69.07;27.40;;;2.10;99.90;;;;;;4991343;28;20183;-82
2021/12/12 00:24:17;;;;;;;65.37;25.93;;;2.00;99.90;;;;;;5009820;28;20179;-83
2021/12/12 00:26:46;;;;;;;70.30;26.83;;;1.90;99.90;;;;;;4980959;28;20222;-81
2021/12/12 00:29:14;;;;;;;71.27;27.33;;;1.90;99.90;;;;;;4978350;28;20195;-82
2021/12/12 00:31:40;;;;;;;76.80;27.73;;;1.80;99.90;;;;;;5011328;28;20187;-83
2021/12/12 00:34:06;;;;;;;70.43;27.23;;;1.70;99.90;;;;;;4996667;28;20195;-84
2021/12/12 00:36:34;;;;;;;75.60;27.13;;;1.70;99.90;;;;;;4997160;28;20195;-85
2021/12/12 00:39:05;;;;;;;71.13;27.03;;;1.60;99.90;;;;;;4996006;28;20175;-83
2021/12/12 00:41:44;;;;;;;75.20;29.97;;;1.80;99.90;;;;;;4985814;28;20160;-83
2021/12/12 00:44:12;;;;;;;73.33;27.90;;;1.80;99.90;;;;;;4985559;28;20186;-85
2021/12/12 00:46:38;;;;;;;76.07;29.00;;;1.80;99.90;;;;;;4999259;28;20563;-79
2021/12/12 00:49:07;;;;;;;71.07;28.93;;;1.80;99.90;;;;;;5013340;28;20171;-78
2021/12/12 00:51:38;;;;;;;78.60;28.30;;;1.80;99.90;;;;;;4996658;28;20215;-80
2021/12/12 00:54:05;;;;;;;73.07;27.17;;;1.80;99.90;;;;;;4975990;28;20176;-83
2021/12/12 00:56:31;;;;;;;63.07;25.83;;;1.80;99.90;;;;;;4977551;28;20254;-80
2021/12/12 00:58:58;;;;;;;76.47;27.37;;;1.80;99.90;;;;;;4966972;28;20179;-80
2021/12/12 01:01:29;;;;;;;71.23;26.37;;;2.00;99.90;;;;;;4972566;28;20199;-81
2021/12/12 01:04:00;;;;;;;73.30;27.83;;;2.00;99.90;;;;;;5004547;28;20179;-79
2021/12/12 01:06:27;;;;;;;66.23;26.93;;;2.00;99.90;;;;;;4963207;28;20259;-80
2021/12/12 01:08:56;;;;;;;63.97;25.87;;;2.00;99.90;;;;;;4980134;28;20184;-80
2021/12/12 01:11:31;;;;;;;56.73;23.30;;;2.00;99.90;;;;;;4979566;28;20630;-80
2021/12/12 01:14:06;;;;;;;68.97;25.50;;;2.00;99.90;;;;;;4994521;28;20183;-80
2021/12/12 01:16:40;;;;;;;67.33;26.80;;;2.00;99.90;;;;;;5000205;28;20209;-80
2021/12/12 01:19:21;;;;;;;60.67;24.80;;;2.00;99.90;;;;;;5000561;28;20254;-80
2021/12/12 01:22:00;;;;;;;65.30;25.33;;;2.10;99.90;;;;;;4984671;28;20187;-80
2021/12/12 01:24:34;;;;;;;58.80;25.10;;;2.10;99.90;;;;;;4983436;28;20626;-78
2021/12/12 01:27:02;;;;;;;63.33;25.83;;;2.10;99.90;;;;;;5005382;28;20286;-77
2021/12/12 01:29:28;;;;;;;60.30;24.30;;;2.20;99.90;;;;;;4958870;28;20225;-77
2021/12/12 01:31:56;;;;;;;55.07;23.73;;;2.30;99.90;;;;;;4993125;28;20183;-78
2021/12/12 01:34:26;;;;;;;53.80;24.27;;;2.10;99.90;;;;;;4966835;28;20179;-81
2021/12/12 01:39:28;;;;;;;56.90;25.13;;;2.10;99.90;;;;;;4984873;28;20206;-78
2021/12/12 01:42:05;;;;;;;53.97;23.83;;;2.10;99.90;;;;;;4976095;28;20175;-79
2021/12/12 01:44:58;;;;;;;58.20;24.57;;;2.10;99.90;;;;;;4959629;28;20270;-78
2021/12/12 01:47:45;;;;;;;53.43;23.57;;;2.20;99.90;;;;;;4969069;28;20277;-78
2021/12/12 01:50:18;;;;;;;54.33;23.50;;;2.20;99.90;;;;;;4981464;28;20262;-77
2021/12/12 01:52:49;;;;;;;57.47;23.80;;;2.30;99.90;;;;;;4986976;28;20179;-78
2021/12/12 01:55:25;;;;;;;51.10;23.27;;;2.20;99.90;;;;;;4978254;28;20179;-78
2021/12/12 01:57:56;;;;;;;54.80;23.93;;;2.30;99.90;;;;;;4969577;28;20225;-77
2021/12/12 02:00:47;;;;;;;47.70;22.37;;;2.40;99.90;;;;;;4987992;28;20291;-78
2021/12/12 02:03:17;;;;;;;48.93;21.73;;;2.50;99.90;;;;;;4996903;28;20213;-78
2021/12/12 02:05:56;;;;;;;46.13;21.43;;;2.50;99.90;;;;;;4997391;28;20183;-77
2021/12/12 02:08:23;;;;;;;46.83;21.07;;;2.40;99.90;;;;;;4989821;28;20203;-77
2021/12/12 02:10:56;;;;;;;47.40;21.67;;;2.30;99.90;;;;;;4976006;28;20190;-79
2021/12/12 02:13:26;;;;;;;46.23;20.87;;;2.30;99.90;;;;;;4980012;28;20179;-77
2021/12/12 02:15:55;;;;;;;43.03;19.90;;;2.50;99.90;;;;;;4964599;28;20176;-76
2021/12/12 02:18:30;;;;;;;49.67;21.70;;;2.40;99.90;;;;;;4978209;28;20566;-77
2021/12/12 02:37:59;;;;;;;41.53;20.63;;;2.50;99.90;;;;;;4984230;28;20682;-78
2021/12/12 02:40:40;;;;;;;42.07;21.13;;;2.60;99.90;;;;;;4995772;28;20213;-78
2021/12/12 02:43:07;;;;;;;44.03;21.77;;;2.60;99.90;;;;;;4997609;28;20171;-76
2021/12/12 02:45:35;;;;;;;41.53;19.77;;;2.60;99.90;;;;;;4962118;28;20186;-78
2021/12/12 02:48:07;;;;;;;40.40;20.27;;;2.80;99.90;;;;;;4980475;28;20199;-78
2021/12/12 02:50:46;;;;;;;42.07;21.30;;;2.90;99.90;;;;;;4965337;28;20278;-77
2021/12/12 02:53:32;;;;;;;43.70;21.17;;;3.00;99.90;;;;;;4993789;28;20179;-78
2021/12/12 02:56:07;;;;;;;40.67;20.23;;;3.00;99.90;;;;;;4987447;28;20332;-78
2021/12/12 02:58:33;;;;;;;39.30;20.23;;;2.90;99.90;;;;;;4976585;28;20274;-78
2021/12/12 03:01:16;;;;;;;43.33;20.10;;;2.90;99.90;;;;;;4995002;28;20332;-77
2021/12/12 03:03:43;;;;;;;41.90;20.50;;;3.00;99.90;;;;;;4984006;28;20746;-79
2021/12/12 03:06:12;;;;;;;38.50;19.53;;;3.10;99.90;;;;;;4965233;28;20176;-78
2021/12/12 03:08:42;;;;;;;39.63;20.40;;;3.10;99.90;;;;;;4983431;28;21187;-76
2021/12/12 03:11:08;;;;;;;39.83;19.67;;;3.00;99.90;;;;;;4982567;28;20242;-76
2021/12/12 03:13:34;;;;;;;38.23;20.03;;;3.10;99.90;;;;;;4991993;28;20214;-77
2021/12/12 03:16:02;;;;;;;37.07;20.30;;;3.20;99.90;;;;;;4961615;28;20265;-77
2021/12/12 03:18:40;;;;;;;41.63;20.80;;;3.20;99.90;;;;;;4977136;28;20313;-76
2021/12/12 03:21:17;;;;;;;37.20;19.93;;;3.20;99.90;;;;;;4990932;28;20203;-76
2021/12/12 03:23:53;;;;;;;41.20;21.07;;;3.20;99.90;;;;;;4977336;28;20335;-76
2021/12/12 03:26:19;;;;;;;38.60;19.40;;;3.40;99.90;;;;;;5002649;28;20168;-76
2021/12/12 03:28:49;;;;;;;35.07;19.67;;;3.50;99.90;;;;;;5009589;28;20178;-75
2021/12/12 03:31:26;;;;;;;32.63;19.43;;;3.50;99.90;;;;;;4968166;28;20180;-76
2021/12/12 03:33:53;;;;;;;35.53;19.27;;;3.60;99.90;;;;;;4989979;28;20189;-77
2021/12/12 03:36:19;;;;;;;34.67;19.53;;;3.60;99.90;;;;;;4979546;28;20262;-75
2021/12/12 03:38:49;;;;;;;32.33;17.90;;;3.70;99.90;;;;;;4970419;28;20588;-76
2021/12/12 03:41:19;;;;;;;38.00;20.10;;;3.70;99.90;;;;;;4960893;28;20725;-77
2021/12/12 03:43:50;;;;;;;33.50;19.40;;;3.70;99.90;;;;;;4963011;28;20179;-77
2021/12/12 03:46:16;;;;;;;37.73;18.50;;;3.60;99.90;;;;;;4992122;28;20203;-76
2021/12/12 03:48:47;;;;;;;35.83;19.70;;;3.70;99.90;;;;;;4987888;28;20219;-77
2021/12/12 03:51:16;;;;;;;37.67;20.13;;;3.80;99.90;;;;;;4989455;28;20250;-78
2021/12/12 03:53:42;;;;;;;44.00;21.03;;;3.80;99.90;;;;;;4975643;28;20182;-78
2021/12/12 03:56:11;;;;;;;47.60;21.10;;;3.60;99.90;;;;;;4960244;28;20183;-78
2021/12/12 03:58:39;;;;;;;41.50;21.33;;;3.60;99.90;;;;;;4992501;28;20246;-78
2021/12/12 04:01:32;;;;;;;39.23;20.80;;;3.60;99.90;;;;;;4968848;28;20210;-78
2021/12/12 04:04:06;;;;;;;46.27;21.93;;;3.60;99.90;;;;;;4985695;28;20333;-75
2021/12/12 04:06:32;;;;;;;40.93;21.03;;;3.50;99.90;;;;;;4966684;28;20200;-76
2021/12/12 04:08:58;;;;;;;42.87;21.50;;;3.50;99.90;;;;;;4974300;28;20186;-77
2021/12/12 04:11:43;;;;;;;45.53;22.40;;;3.60;99.90;;;;;;4967778;28;20318;-77
2021/12/12 04:14:09;;;;;;;41.53;21.57;;;3.70;99.90;;;;;;4987678;28;20222;-76
2021/12/12 04:16:56;;;;;;;42.37;22.40;;;3.80;99.90;;;;;;4963979;28;20206;-77
2021/12/12 04:19:23;;;;;;;47.23;22.30;;;3.70;99.90;;;;;;4988930;28;20195;-75
2021/12/12 04:21:48;;;;;;;45.43;23.87;;;3.80;99.90;;;;;;4984447;28;20175;-75
2021/12/12 04:24:27;;;;;;;48.63;23.83;;;3.90;99.90;;;;;;4976766;28;20179;-75
2021/12/12 04:26:54;;;;;;;50.50;23.03;;;3.90;99.90;;;;;;4956552;28;20680;-74
2021/12/12 04:29:44;;;;;;;48.67;24.17;;;3.90;99.90;;;;;;4962687;28;20184;-76
2021/12/12 04:32:13;;;;;;;52.37;25.17;;;3.70;99.90;;;;;;4983638;28;20175;-76
2021/12/12 04:34:44;;;;;;;46.63;23.57;;;3.70;99.90;;;;;;4974334;28;20180;-77
2021/12/12 04:37:10;;;;;;;48.60;23.57;;;3.80;99.90;;;;;;4986848;28;20199;-76
2021/12/12 04:39:39;;;;;;;45.70;23.63;;;4.00;99.90;;;;;;4958372;28;20242;-76
2021/12/12 04:42:30;;;;;;;43.80;23.13;;;4.00;99.90;;;;;;4970881;28;20238;-75
2021/12/12 04:45:03;;;;;;;46.27;24.27;;;4.10;99.90;;;;;;4981642;28;20275;-78
2021/12/12 04:50:46;;;;;;;50.50;24.60;;;4.10;99.90;;;;;;4986746;28;20175;-76
2021/12/12 04:53:18;;;;;;;51.97;25.80;;;4.10;99.90;;;;;;5004851;28;20207;-76
2021/12/12 04:56:11;;;;;;;54.00;24.80;;;4.20;99.90;;;;;;4974631;28;20198;-76
2021/12/12 04:58:44;;;;;;;54.03;25.43;;;4.10;99.90;;;;;;4979890;28;20179;-76
2021/12/12 05:01:21;;;;;;;53.20;25.93;;;4.10;99.90;;;;;;4967361;28;20270;-75
2021/12/12 05:04:10;;;;;;;51.07;25.10;;;4.00;99.90;;;;;;4974311;28;20229;-77
2021/12/12 05:06:51;;;;;;;53.07;25.43;;;4.20;99.90;;;;;;4974779;28;20290;-75
2021/12/12 05:09:25;;;;;;;49.13;25.60;;;4.10;99.90;;;;;;4976916;28;20234;-75
2021/12/12 05:12:07;;;;;;;53.77;26.47;;;4.10;99.90;;;;;;4985814;28;20691;-75
2021/12/12 05:14:50;;;;;;;49.40;24.57;;;4.20;99.90;;;;;;4959301;28;20175;-75
2021/12/12 05:17:30;;;;;;;53.73;24.40;;;4.10;99.90;;;;;;4958299;28;20199;-76
2021/12/12 05:20:00;;;;;;;56.60;25.50;;;4.10;99.90;;;;;;4988709;28;20210;-76
2021/12/12 05:22:36;;;;;;;50.90;25.13;;;4.00;99.90;;;;;;4960244;28;20593;-75
2021/12/12 05:25:08;;;;;;;55.20;26.77;;;4.10;99.90;;;;;;4958553;28;20183;-76
2021/12/12 05:27:35;;;;;;;59.23;26.93;;;4.20;99.90;;;;;;4974481;28;20307;-75
2021/12/12 05:30:10;;;;;;;54.80;25.07;;;4.30;99.90;;;;;;4972165;28;20175;-76
2021/12/12 05:32:37;;;;;;;57.53;26.13;;;4.30;99.90;;;;;;4959002;28;20205;-76
2021/12/12 05:35:06;;;;;;;58.33;27.07;;;4.30;99.90;;;;;;4983214;28;20313;-78
2021/12/12 05:37:32;;;;;;;53.23;26.53;;;4.30;99.90;;;;;;4990776;28;20205;-79
2021/12/12 05:40:02;;;;;;;52.67;25.70;;;4.40;99.90;;;;;;5003297;28;20207;-79
2021/12/12 05:42:29;;;;;;;54.47;26.97;;;4.40;99.90;;;;;;4976654;28;20201;-78
2021/12/12 05:44:58;;;;;;;56.23;25.40;;;4.40;99.90;;;;;;4960245;28;20207;-77
2021/12/12 05:47:24;;;;;;;58.67;25.47;;;4.40;99.90;;;;;;4969284;28;20207;-77
2021/12/12 05:49:50;;;;;;;53.83;24.03;;;4.40;99.90;;;;;;4958782;28;20215;-77
2021/12/12 05:52:20;;;;;;;53.40;27.10;;;4.40;99.90;;;;;;4958476;28;20219;-77
2021/12/12 05:54:48;;;;;;;49.37;25.03;;;4.50;99.90;;;;;;4958894;28;20180;-83
2021/12/12 05:57:19;;;;;;;55.50;25.77;;;4.40;99.90;;;;;;4961429;28;20207;-77
2021/12/12 05:59:46;;;;;;;55.60;26.33;;;4.50;99.90;;;;;;4967175;28;20203;-76
2021/12/12 06:02:13;;;;;;;53.27;25.43;;;4.40;99.90;;;;;;4958938;28;20176;-76
2021/12/12 06:04:42;;;;;;;47.53;23.23;;;4.30;99.90;;;;;;4988662;28;20188;-76
2021/12/12 06:07:10;;;;;;;48.40;23.93;;;4.20;99.90;;;;;;4990306;28;20242;-76
2021/12/12 06:09:37;;;;;;;50.47;25.10;;;4.10;99.90;;;;;;4973012;28;20672;-77
2021/12/12 06:12:05;;;;;;;52.10;24.90;;;4.20;99.90;;;;;;4991632;28;20184;-76
2021/12/12 06:14:32;;;;;;;44.00;22.30;;;4.30;99.90;;;;;;4967192;28;20203;-76
2021/12/12 06:17:14;;;;;;;50.73;24.03;;;4.20;99.90;;;;;;4976911;28;20238;-78
2021/12/12 06:19:45;;;;;;;48.27;23.63;;;4.40;99.90;;;;;;4972874;28;20203;-78
2021/12/12 06:22:11;;;;;;;43.57;22.17;;;4.30;99.90;;;;;;4962438;28;20664;-76
2021/12/12 06:24:40;;;;;;;46.50;21.93;;;4.30;99.90;;;;;;4974853;28;20555;-77
2021/12/12 06:27:15;;;;;;;43.43;22.27;;;4.20;99.90;;;;;;4960094;28;20615;-77
2021/12/12 06:29:42;;;;;;;47.23;23.33;;;4.10;99.90;;;;;;4975214;28;20202;-76
2021/12/12 06:32:08;;;;;;;48.80;22.53;;;4.20;99.90;;;;;;4962056;28;20183;-76
2021/12/12 06:34:34;;;;;;;48.07;22.10;;;4.20;99.90;;;;;;4966282;28;20250;-76
2021/12/12 06:37:00;;;;;;;47.27;22.13;;;4.00;99.90;;;;;;4996001;28;20244;-76
2021/12/12 06:39:26;;;;;;;50.67;22.97;;;4.00;99.90;;;;;;4964205;28;20179;-77
2021/12/12 06:41:59;;;;;;;48.37;23.73;;;4.10;99.90;;;;;;4977951;28;20187;-76
2021/12/12 06:44:25;;;;;;;46.13;23.87;;;4.20;99.90;;;;;;4993475;28;20190;-76
2021/12/12 06:46:53;;;;;;;48.80;22.03;;;4.00;99.90;;;;;;4972811;28;20203;-76
2021/12/12 06:49:20;;;;;;;50.73;24.67;;;4.00;99.90;;;;;;4980523;28;20258;-76
2021/12/12 06:51:49;;;;;;;52.97;22.57;;;4.10;99.90;;;;;;4961664;28;20173;-76
2021/12/12 06:54:21;;;;;;;47.07;22.70;;;4.00;99.90;;;;;;4978880;28;20182;-76
2021/12/12 06:56:48;;;;;;;46.07;21.90;;;4.00;99.90;;;;;;4982576;28;20199;-78
2021/12/12 06:59:14;;;;;;;44.70;21.53;;;4.00;99.90;;;;;;4961548;28;20175;-76
2021/12/12 07:01:41;;;;;;;49.70;21.57;;;4.00;99.90;;;;;;4968505;28;20175;-75
2021/12/12 07:04:08;;;;;;;41.43;20.60;;;3.90;99.90;;;;;;4964926;28;20175;-76
2021/12/12 07:06:35;;;;;;;48.37;22.57;;;3.90;99.90;;;;;;4997061;28;20590;-75
2021/12/12 07:09:05;;;;;;;45.70;20.73;;;3.80;99.90;;;;;;4962131;28;20179;-76
2021/12/12 07:11:32;;;;;;;44.33;20.80;;;3.90;99.90;;;;;;4961785;28;20186;-75
2021/12/12 07:13:59;;;;;;;51.10;22.03;;;3.90;99.90;;;;;;4972069;28;20187;-75
2021/12/12 07:16:25;;;;;;;46.07;21.43;;;3.90;99.90;;;;;;4964203;28;20231;-76
2021/12/12 07:18:53;;;;;;;44.37;20.83;;;3.80;99.90;;;;;;4961550;28;20206;-76
2021/12/12 07:21:20;;;;;;;41.40;19.83;;;3.80;99.90;;;;;;4968290;28;20195;-77
2021/12/12 07:23:49;;;;;;;43.47;19.87;;;3.90;99.90;;;;;;4967091;28;20211;-76
2021/12/12 07:26:17;;;;;;;41.93;20.00;;;3.80;99.90;;;;;;4977788;28;20175;-76
2021/12/12 07:28:44;;;;;;;36.73;18.30;;;3.80;99.90;;;;;;4967829;28;20225;-77
2021/12/12 07:31:20;;;;;;;35.37;18.10;;;3.80;99.90;;;;;;4977674;28;20175;-76
2021/12/12 07:33:52;;;;;;;39.13;18.13;;;3.80;99.90;;;;;;4964395;28;20179;-76
2021/12/12 07:36:19;;;;;;;34.33;18.07;;;3.80;99.90;;;;;;4981165;28;20270;-77
2021/12/12 07:38:51;;;;;;;36.93;16.90;;;3.80;99.90;;;;;;4972984;28;20180;-79
2021/12/12 07:41:19;;;;;;;37.73;17.57;;;3.80;99.90;;;;;;4997232;28;20242;-79
2021/12/12 07:43:45;;;;;;;38.73;19.23;;;3.80;99.90;;;;;;4984957;28;20214;-79
2021/12/12 07:46:11;;;;;;;43.07;18.50;;;3.80;99.90;;;;;;4982663;28;20970;-80
2021/12/12 07:48:39;;;;;;;40.40;18.67;;;3.70;99.90;;;;;;5003454;28;20658;-78
2021/12/12 07:51:07;;;;;;;42.30;19.33;;;3.70;99.90;;;;;;4988334;28;20175;-79
2021/12/12 07:53:33;;;;;;;42.33;19.70;;;3.70;99.90;;;;;;4967643;28;20187;-78
2021/12/12 07:55:59;;;;;;;42.10;18.77;;;3.80;99.90;;;;;;5001879;28;20185;-79
2021/12/12 07:58:26;;;;;;;39.90;19.13;;;3.80;99.90;;;;;;4983734;28;20199;-77
2021/12/12 08:00:58;;;;;;;39.33;18.93;;;3.70;99.90;;;;;;4962729;28;20209;-79
2021/12/12 08:03:29;;;;;;;42.93;17.50;;;3.70;99.90;;;;;;4985847;28;20210;-81
2021/12/12 08:05:56;;;;;;;44.27;18.77;;;3.60;99.90;;;;;;4975340;28;20274;-80
2021/12/12 08:08:24;;;;;;;40.50;17.90;;;3.60;99.90;;;;;;5000992;28;20209;-76
2021/12/12 08:10:50;;;;;;;35.20;17.77;;;3.70;99.90;;;;;;5007141;28;20179;-79
2021/12/12 08:13:17;;;;;;;42.93;19.17;;;3.70;99.90;;;;;;5009363;28;20190;-78
2021/12/12 08:15:43;;;;;;;35.10;17.80;;;3.80;99.90;;;;;;5010097;28;20537;-77
2021/12/12 08:18:11;;;;;;;44.60;19.67;;;3.80;99.90;;;;;;4995303;28;20216;-78
2021/12/12 08:20:38;;;;;;;38.93;17.23;;;3.80;99.90;;;;;;4976198;28;20199;-80
2021/12/12 08:23:04;;;;;;;37.53;17.20;;;3.70;99.90;;;;;;4992616;28;20184;-77
2021/12/12 08:25:31;;;;;;;40.13;18.10;;;3.70;99.90;;;;;;5010258;28;20179;-77
2021/12/12 08:28:00;;;;;;;33.33;17.67;;;3.80;99.90;;;;;;4976579;28;20202;-79
2021/12/12 08:30:28;;;;;;;34.13;16.10;;;3.80;99.90;;;;;;4982271;28;20274;-80
2021/12/12 08:32:54;;;;;;;34.97;17.43;;;3.80;99.90;;;;;;4979726;28;20192;-79
2021/12/12 08:35:22;;;;;;;37.50;16.77;;;3.80;99.90;;;;;;4981601;28;20257;-79
2021/12/12 08:37:48;;;;;;;37.83;17.70;;;3.90;99.90;;;;;;4969783;28;20206;-80
2021/12/12 08:40:18;;;;;;;37.20;17.60;;;3.90;99.90;;;;;;4980015;28;20213;-78
2021/12/12 08:42:46;;;;;;;35.27;17.00;;;3.80;99.90;;;;;;4982287;28;20203;-79
2021/12/12 08:45:15;;;;;;;36.40;16.43;;;3.80;99.90;;;;;;4996069;28;20246;-79
2021/12/12 08:47:41;;;;;;;32.33;15.70;;;3.70;99.90;;;;;;4994161;28;20194;-78
2021/12/12 08:50:10;;;;;;;34.27;15.73;;;3.80;99.90;;;;;;4956721;28;20184;-77
2021/12/12 08:52:40;;;;;;;36.50;16.17;;;3.80;99.90;;;;;;4960262;28;20207;-77
2021/12/12 08:55:14;;;;;;;36.23;15.07;;;3.90;99.90;;;;;;4975503;28;20183;-75
2021/12/12 08:57:50;;;;;;;33.23;15.37;;;3.80;99.90;;;;;;4960471;28;20206;-77
2021/12/12 09:00:19;;;;;;;32.20;14.10;;;3.80;99.90;;;;;;4956589;28;20199;-77
2021/12/12 09:02:45;;;;;;;29.07;14.10;;;3.90;99.90;;;;;;4975863;28;20180;-80
2021/12/12 09:05:17;;;;;;;32.23;13.63;;;3.90;99.90;;;;;;4991507;28;20207;-77
2021/12/12 09:07:48;;;;;;;31.77;15.40;;;3.90;99.90;;;;;;4975707;28;20195;-77
2021/12/12 09:10:21;;;;;;;22.03;11.90;;;3.90;99.90;;;;;;4981937;28;20183;-78
2021/12/12 09:13:19;;;;;;;27.67;13.80;;;4.00;99.90;;;;;;4960582;28;20179;-76
2021/12/12 09:15:55;;;;;;;26.67;13.97;;;4.00;99.90;;;;;;4969086;28;20211;-76
2021/12/12 09:18:28;;;;;;;23.70;12.27;;;4.00;99.90;;;;;;4972845;28;20215;-78
2021/12/12 09:21:02;;;;;;;23.63;12.43;;;4.00;99.90;;;;;;4956695;28;20262;-78
2021/12/12 09:24:01;;;;;;;24.23;12.33;;;4.00;99.90;;;;;;4958367;28;20203;-77
2021/12/12 09:26:27;;;;;;;21.43;11.50;;;4.10;99.90;;;;;;4974373;28;20202;-78
2021/12/12 09:29:10;;;;;;;21.83;11.00;;;4.20;99.90;;;;;;4963484;28;20171;-77
2021/12/12 09:31:40;;;;;;;19.47;9.70;;;4.20;99.90;;;;;;4975852;28;20190;-77
2021/12/12 09:34:37;;;;;;;13.97;8.73;;;4.20;99.90;;;;;;4965961;28;20183;-77
2021/12/12 09:37:12;;;;;;;19.53;8.97;;;4.40;99.90;;;;;;4959957;28;20239;-77
2021/12/12 09:39:49;;;;;;;20.10;9.00;;;4.30;99.90;;;;;;4973076;28;20179;-75
2021/12/12 09:42:55;;;;;;;16.77;8.57;;;4.40;99.90;;;;;;4975430;28;20211;-76
2021/12/12 09:45:36;;;;;;;17.07;8.93;;;4.30;99.90;;;;;;4972052;28;20172;-76
2021/12/12 09:51:28;;;;;;;12.97;6.77;;;4.40;99.90;;;;;;4988038;28;20193;-76
2021/12/12 09:54:22;;;;;;;10.73;6.30;;;4.40;99.90;;;;;;4982086;28;20187;-76
2021/12/12 09:57:04;;;;;;;12.37;6.67;;;4.40;99.90;;;;;;4974390;28;20206;-77
2021/12/12 09:59:54;;;;;;;8.10;5.20;;;4.50;99.90;;;;;;4970926;28;20176;-76
2021/12/12 10:02:34;;;;;;;6.93;4.27;;;4.60;99.90;;;;;;4959537;28;20175;-77
2021/12/12 10:05:37;;;;;;;7.47;4.00;;;4.70;99.90;;;;;;4963530;28;20184;-76
2021/12/12 10:08:09;;;;;;;8.87;3.87;;;4.60;99.90;;;;;;4962981;28;20199;-76
2021/12/12 10:10:43;;;;;;;6.10;4.40;;;4.60;99.90;;;;;;4959170;28;20180;-76
2021/12/12 10:13:28;;;;;;;8.30;4.20;;;4.60;99.90;;;;;;4963151;28;20197;-76
2021/12/12 10:16:03;;;;;;;5.17;3.80;;;4.60;99.90;;;;;;4971033;28;20179;-76
2021/12/12 10:18:35;;;;;;;7.73;4.30;;;4.50;99.90;;;;;;4991268;28;20218;-76
2021/12/12 10:21:11;;;;;;;5.30;3.90;;;4.60;99.90;;;;;;4960012;28;20227;-79
2021/12/12 10:24:11;;;;;;;5.60;3.77;;;4.60;99.90;;;;;;4987330;28;20210;-77
2021/12/12 10:26:44;;;;;;;6.73;3.77;;;4.70;99.90;;;;;;4972362;28;20203;-79
2021/12/12 10:29:19;;;;;;;6.60;3.70;;;4.70;99.90;;;;;;4959098;28;20188;-77
2021/12/12 10:31:57;;;;;;;6.20;3.70;;;4.70;99.90;;;;;;4977956;28;20202;-76
2021/12/12 10:34:27;;;;;;;7.83;4.27;;;4.70;99.90;;;;;;4960249;28;20208;-77
2021/12/12 10:37:07;;;;;;;6.03;4.40;;;4.60;99.90;;;;;;4991235;28;20630;-76
2021/12/12 10:40:14;;;;;;;6.40;3.80;;;4.60;99.90;;;;;;4993188;28;20263;-76
2021/12/12 10:42:50;;;;;;;4.93;3.70;;;4.60;99.90;;;;;;5010628;28;20243;-76
2021/12/12 10:45:22;;;;;;;4.53;3.43;;;4.60;99.90;;;;;;4980039;28;20262;-80
2021/12/12 10:47:54;;;;;;;5.23;3.63;;;4.60;99.90;;;;;;4977352;28;20199;-76
2021/12/12 10:50:38;;;;;;;5.10;3.60;;;4.60;99.90;;;;;;4966631;28;20215;-76
2021/12/12 10:53:34;;;;;;;5.50;3.80;;;4.70;99.90;;;;;;4977464;28;20225;-77
2021/12/12 10:56:13;;;;;;;4.80;3.30;;;4.60;99.90;;;;;;4989002;28;20246;-76
2021/12/12 10:58:56;;;;;;;5.07;3.73;;;4.70;99.90;;;;;;4961396;28;20595;-76
2021/12/12 11:01:30;;;;;;;4.03;3.63;;;4.70;99.90;;;;;;4989300;28;20230;-76
2021/12/12 11:04:16;;;;;;;5.53;3.80;;;4.70;99.90;;;;;;4961715;28;20254;-76
2021/12/12 11:07:03;;;;;;;4.40;4.00;;;4.70;99.90;;;;;;4978667;28;20656;-76
2021/12/12 11:10:05;;;;;;;6.77;3.87;;;4.70;99.90;;;;;;4976636;28;20168;-77
2021/12/12 11:12:43;;;;;;;5.03;4.00;;;4.60;99.90;;;;;;4961219;28;20183;-77
2021/12/12 11:15:19;;;;;;;7.00;3.93;;;4.70;99.90;;;;;;4977196;28;20175;-76
2021/12/12 11:17:50;;;;;;;6.40;4.10;;;4.70;99.90;;;;;;4977720;28;20221;-77
2021/12/12 11:20:32;;;;;;;8.07;4.57;;;4.70;99.90;;;;;;4989278;28;20315;-76
2021/12/12 11:23:51;;;;;;;5.57;3.80;;;4.70;99.90;;;;;;4993305;28;20179;-77
2021/12/12 11:26:27;;;;;;;5.80;4.43;;;4.70;99.90;;;;;;4904972;29;20197;-77
2021/12/12 11:28:57;;;;;;;7.57;4.63;;;4.70;99.90;;;;;;4975994;28;20652;-77
2021/12/12 11:31:35;;;;;;;6.77;4.83;;;4.70;99.90;;;;;;4993371;28;20540;-75
2021/12/12 11:34:03;;;;;;;6.23;4.97;;;4.70;99.90;;;;;;4976962;28;20207;-78
2021/12/12 11:36:50;;;;;;;5.50;4.57;;;4.70;99.90;;;;;;4970530;28;20695;-76
2021/12/12 11:39:29;;;;;;;6.43;4.90;;;4.80;99.90;;;;;;4973162;28;20176;-77
2021/12/12 11:42:05;;;;;;;6.33;4.77;;;4.80;99.90;;;;;;4989303;28;20574;-77
2021/12/12 11:45:09;;;;;;;6.33;4.87;;;4.90;99.90;;;;;;4993310;28;20171;-76
2021/12/12 11:47:59;;;;;;;6.50;5.07;;;4.90;99.90;;;;;;4973167;28;20203;-77
2021/12/12 11:50:41;;;;;;;6.37;4.97;;;4.90;99.90;;;;;;4962038;28;20183;-77
2021/12/12 11:53:29;;;;;;;6.63;5.20;;;4.90;99.90;;;;;;4968753;28;20176;-77
2021/12/12 11:56:21;;;;;;;6.97;5.20;;;4.90;99.90;;;;;;4994199;28;20182;-76
2021/12/12 11:59:08;;;;;;;8.07;5.50;;;4.90;99.90;;;;;;4974757;28;21162;-76
2021/12/12 12:01:46;;;;;;;6.47;5.27;;;4.90;99.90;;;;;;4992188;28;20289;-76
2021/12/12 12:04:49;;;;;;;6.70;5.77;;;4.90;99.90;;;;;;4973095;28;20172;-76
2021/12/12 12:07:39;;;;;;;7.00;6.27;;;4.90;99.90;;;;;;4995016;28;20210;-77
2021/12/12 12:10:46;;;;;;;11.37;6.20;;;5.00;99.90;;;;;;4992283;28;20183;-77
2021/12/12 12:13:23;;;;;;;8.13;6.10;;;5.00;99.90;;;;;;4966298;28;20168;-76
2021/12/12 12:16:00;;;;;;;8.97;6.17;;;5.00;99.90;;;;;;4988457;28;20706;-76
2021/12/12 12:18:37;;;;;;;9.27;6.80;;;4.90;99.90;;;;;;4975928;28;20268;-76
2021/12/12 12:21:19;;;;;;;7.43;6.67;;;5.00;99.90;;;;;;4979668;28;20208;-76
2021/12/12 12:24:21;;;;;;;10.57;7.53;;;5.00;99.90;;;;;;4983758;28;20179;-76
2021/12/12 12:27:03;;;;;;;8.97;7.07;;;5.10;99.90;;;;;;4959402;28;20359;-76
2021/12/12 12:29:28;;;;;;;9.60;7.63;;;5.10;99.90;;;;;;4975084;28;20235;-76
2021/12/12 12:32:22;;;;;;;11.10;7.83;;;5.10;99.90;;;;;;4975913;28;20267;-77
2021/12/12 12:35:25;;;;;;;11.47;8.33;;;5.20;99.90;;;;;;4985537;28;20211;-77
2021/12/12 12:38:28;;;;;;;9.57;8.30;;;5.20;99.90;;;;;;4970522;28;20194;-76
2021/12/12 12:41:32;;;;;;;14.77;8.80;;;5.20;99.90;;;;;;4956146;28;20210;-76
2021/12/12 12:44:35;;;;;;;9.23;8.33;;;5.20;99.90;;;;;;4971943;28;20255;-76
2021/12/12 12:47:38;;;;;;;9.03;8.13;;;5.20;99.90;;;;;;4968471;28;20212;-76
2021/12/12 12:50:40;;;;;;;9.67;8.67;;;5.30;99.90;;;;;;4984902;28;20182;-77
2021/12/12 12:53:38;;;;;;;10.40;8.50;;;5.30;99.90;;;;;;4972024;28;20202;-76
2021/12/12 12:56:10;;;;;;;9.33;8.33;;;5.30;99.90;;;;;;4975505;28;20183;-77
2021/12/12 12:59:01;;;;;;;11.20;8.53;;;5.30;99.90;;;;;;4970478;28;20183;-76
2021/12/12 13:01:54;;;;;;;10.03;8.33;;;5.30;99.90;;;;;;4956926;28;20575;-76
2021/12/12 13:04:47;;;;;;;10.17;8.03;;;5.40;99.90;;;;;;4982861;28;20171;-78
2021/12/12 13:07:23;;;;;;;9.30;8.20;;;5.40;99.90;;;;;;4974518;28;20195;-76
2021/12/12 13:10:17;;;;;;;9.97;8.60;;;5.50;99.90;;;;;;4983423;28;20183;-77
2021/12/12 13:13:11;;;;;;;9.47;8.47;;;5.40;99.90;;;;;;4959699;28;20195;-77
2021/12/12 13:16:02;;;;;;;13.30;8.50;;;5.50;99.90;;;;;;4975466;28;20179;-77
2021/12/12 13:18:49;;;;;;;10.03;8.33;;;5.50;99.90;;;;;;4959059;28;20216;-76
2021/12/12 13:21:34;;;;;;;10.10;8.90;;;5.60;99.90;;;;;;4958276;28;20215;-76
2021/12/12 13:24:28;;;;;;;10.00;9.00;;;5.60;99.90;;;;;;4988677;28;20167;-76
2021/12/12 13:30:07;;;;;;;10.10;8.40;;;5.70;99.90;;;;;;4968534;28;20230;-77
2021/12/12 13:33:01;;;;;;;8.83;7.93;;;5.70;99.90;;;;;;5007807;28;20250;-77
2021/12/12 13:35:57;;;;;;;9.10;8.20;;;5.70;99.90;;;;;;4972593;28;20191;-83
2021/12/12 13:38:29;;;;;;;10.63;8.40;;;5.70;99.90;;;;;;4980123;28;20212;-77
2021/12/12 13:41:18;;;;;;;8.90;8.00;;;5.80;99.90;;;;;;4961758;28;20232;-79
2021/12/12 13:44:11;;;;;;;9.07;8.17;;;5.80;99.90;;;;;;4958472;28;20544;-77
2021/12/12 13:46:47;;;;;;;9.43;8.50;;;5.80;99.90;;;;;;4979431;28;20635;-77
2021/12/12 13:49:43;;;;;;;9.37;8.37;;;5.80;99.90;;;;;;4979418;28;20183;-78
2021/12/12 13:52:27;;;;;;;9.20;8.30;;;5.90;99.90;;;;;;4992765;28;20217;-76
2021/12/12 13:55:11;;;;;;;9.30;7.93;;;5.90;99.90;;;;;;4959673;28;20177;-76